sensor_id;sensor_type;location;lat;lon;timestamp;temperature;humidity
16289;DHT22;26089;43.538;5.250;2023-02-12T00:02:06;2.70;99.90
16289;DHT22;26089;43.538;5.250;2023-02-12T00:04:34;2.90;99.90
16289;DHT22;26089;43.538;5.250;2023-02-12T00:07:02;2.20;99.90
16289;DHT22;26089;43.538;5.250;2023-02-12T00:09:29;2.70;99.90
16289;DHT22;26089;43.538;5.250;2023-02-12T00:11:56;3.70;99.90
16289;DHT22;26089;43.538;5.250;2023-02-12T00:14:23;2.60;99.90
16289;DHT22;26089;43.538;5.250;2023-02-12T00:16:50;2.50;99.90
16289;DHT22;26089;43.538;5.250;2023-02-12T00:19:17;2.50;99.90
16289;DHT22;26089;43.538;5.250;2023-02-12T00:21:44;2.40;99.90
16289;DHT22;26089;43.538;5.250;2023-02-12T00:24:13;2.40;99.90
16289;DHT22;26089;43.538;5.250;2023-02-12T00:26:40;2.80;99.90
16289;DHT22;26089;43.538;5.250;2023-02-12T00:29:06;3.20;99.90
16289;DHT22;26089;43.538;5.250;2023-02-12T00:31:33;2.60;99.90
16289;DHT22;26089;43.538;5.250;2023-02-12T00:34:00;2.70;99.90
16289;DHT22;26089;43.538;5.250;2023-02-12T00:36:29;2.80;99.90
16289;DHT22;26089;43.538;5.250;2023-02-12T00:38:57;2.60;99.90
16289;DHT22;26089;43.538;5.250;2023-02-12T00:41:26;3.30;99.90
16289;DHT22;26089;43.538;5.250;2023-02-12T00:43:53;2.40;99.90
16289;DHT22;26089;43.538;5.250;2023-02-12T00:46:20;2.50;99.90
16289;DHT22;26089;43.538;5.250;2023-02-12T00:48:47;2.60;99.90
16289;DHT22;26089;43.538;5.250;2023-02-12T00:51:14;2.50;99.90
16289;DHT22;26089;43.538;5.250;2023-02-12T00:53:41;3.40;99.90
16289;DHT22;26089;43.538;5.250;2023-02-12T00:56:08;2.50;99.90
16289;DHT22;26089;43.538;5.250;2023-02-12T00:58:37;2.50;99.90
16289;DHT22;26089;43.538;5.250;2023-02-12T01:01:04;2.20;99.90
16289;DHT22;26089;43.538;5.250;2023-02-12T01:03:31;2.50;99.90
16289;DHT22;26089;43.538;5.250;2023-02-12T01:05:58;2.50;99.90
16289;DHT22;26089;43.538;5.250;2023-02-12T01:08:25;2.40;99.90
16289;DHT22;26089;43.538;5.250;2023-02-12T01:10:57;1.60;99.90
16289;DHT22;26089;43.538;5.250;2023-02-12T01:13:25;2.40;99.90
16289;DHT22;26089;43.538;5.250;2023-02-12T01:16:05;2.90;99.90
16289;DHT22;26089;43.538;5.250;2023-02-12T01:18:34;2.40;99.90
16289;DHT22;26089;43.538;5.250;2023-02-12T01:21:02;2.00;99.90
16289;DHT22;26089;43.538;5.250;2023-02-12T01:23:33;2.80;99.90
16289;DHT22;26089;43.538;5.250;2023-02-12T01:26:00;2.40;99.90
16289;DHT22;26089;43.538;5.250;2023-02-12T01:28:27;2.20;99.90
16289;DHT22;26089;43.538;5.250;2023-02-12T01:30:54;3.50;99.90
16289;DHT22;26089;43.538;5.250;2023-02-12T01:33:23;2.20;99.90
16289;DHT22;26089;43.538;5.250;2023-02-12T01:35:50;2.10;99.90
16289;DHT22;26089;43.538;5.250;2023-02-12T01:38:17;2.10;99.90
16289;DHT22;26089;43.538;5.250;2023-02-12T01:40:44;2.00;99.90
16289;DHT22;26089;43.538;5.250;2023-02-12T01:43:11;2.10;99.90
16289;DHT22;26089;43.538;5.250;2023-02-12T01:45:50;1.90;99.90
16289;DHT22;26089;43.538;5.250;2023-02-12T01:48:24;2.00;99.90
16289;DHT22;26089;43.538;5.250;2023-02-12T01:50:53;2.60;99.90
16289;DHT22;26089;43.538;5.250;2023-02-12T01:53:22;1.90;99.90
16289;DHT22;26089;43.538;5.250;2023-02-12T01:55:54;1.90;99.90
16289;DHT22;26089;43.538;5.250;2023-02-12T01:58:23;1.80;99.90
16289;DHT22;26089;43.538;5.250;2023-02-12T02:00:52;1.80;99.90
16289;DHT22;26089;43.538;5.250;2023-02-12T02:03:19;1.70;99.90
16289;DHT22;26089;43.538;5.250;2023-02-12T02:05:52;2.10;99.90
16289;DHT22;26089;43.538;5.250;2023-02-12T02:08:22;1.70;99.90
16289;DHT22;26089;43.538;5.250;2023-02-12T02:10:49;1.70;99.90
16289;DHT22;26089;43.538;5.250;2023-02-12T02:13:16;1.70;99.90
16289;DHT22;26089;43.538;5.250;2023-02-12T02:16:13;1.70;99.90
16289;DHT22;26089;43.538;5.250;2023-02-12T02:18:48;1.60;99.90
16289;DHT22;26089;43.538;5.250;2023-02-12T02:21:40;1.70;99.90
16289;DHT22;26089;43.538;5.250;2023-02-12T02:24:31;1.60;99.90
16289;DHT22;26089;43.538;5.250;2023-02-12T02:27:24;2.00;99.90
16289;DHT22;26089;43.538;5.250;2023-02-12T02:30:27;1.60;99.90
16289;DHT22;26089;43.538;5.250;2023-02-12T02:33:07;1.80;99.90
16289;DHT22;26089;43.538;5.250;2023-02-12T02:35:40;1.70;99.90
16289;DHT22;26089;43.538;5.250;2023-02-12T02:38:27;1.70;99.90
16289;DHT22;26089;43.538;5.250;2023-02-12T02:41:02;1.00;99.90
16289;DHT22;26089;43.538;5.250;2023-02-12T02:43:33;1.70;99.90
16289;DHT22;26089;43.538;5.250;2023-02-12T02:46:06;2.50;99.90
16289;DHT22;26089;43.538;5.250;2023-02-12T02:48:36;1.50;99.90
16289;DHT22;26089;43.538;5.250;2023-02-12T02:51:08;2.10;99.90
16289;DHT22;26089;43.538;5.250;2023-02-12T02:53:42;2.30;99.90
16289;DHT22;26089;43.538;5.250;2023-02-12T02:56:13;1.40;99.90
16289;DHT22;26089;43.538;5.250;2023-02-12T02:58:45;1.40;99.90
16289;DHT22;26089;43.538;5.250;2023-02-12T03:01:17;1.80;99.90
16289;DHT22;26089;43.538;5.250;2023-02-12T03:03:49;1.40;99.90
16289;DHT22;26089;43.538;5.250;2023-02-12T03:06:23;1.30;99.90
16289;DHT22;26089;43.538;5.250;2023-02-12T03:08:56;1.30;99.90
16289;DHT22;26089;43.538;5.250;2023-02-12T03:11:26;1.30;99.90
16289;DHT22;26089;43.538;5.250;2023-02-12T03:13:58;1.20;99.90
16289;DHT22;26089;43.538;5.250;2023-02-12T03:16:31;0.90;99.90
16289;DHT22;26089;43.538;5.250;2023-02-12T03:19:03;1.10;99.90
16289;DHT22;26089;43.538;5.250;2023-02-12T03:21:36;1.10;99.90
16289;DHT22;26089;43.538;5.250;2023-02-12T03:24:10;1.20;99.90
16289;DHT22;26089;43.538;5.250;2023-02-12T03:26:44;0.40;99.90
16289;DHT22;26089;43.538;5.250;2023-02-12T03:29:12;1.00;99.90
16289;DHT22;26089;43.538;5.250;2023-02-12T03:31:52;1.00;99.90
16289;DHT22;26089;43.538;5.250;2023-02-12T03:34:27;1.00;99.90
16289;DHT22;26089;43.538;5.250;2023-02-12T03:37:00;1.00;99.90
16289;DHT22;26089;43.538;5.250;2023-02-12T03:39:32;1.70;99.90
16289;DHT22;26089;43.538;5.250;2023-02-12T03:42:04;1.00;99.90
16289;DHT22;26089;43.538;5.250;2023-02-12T03:44:46;1.60;99.90
16289;DHT22;26089;43.538;5.250;2023-02-12T03:47:24;0.90;99.90
16289;DHT22;26089;43.538;5.250;2023-02-12T03:50:00;0.60;99.90
16289;DHT22;26089;43.538;5.250;2023-02-12T03:52:28;1.00;99.90
16289;DHT22;26089;43.538;5.250;2023-02-12T03:54:56;1.00;99.90
16289;DHT22;26089;43.538;5.250;2023-02-12T03:57:25;0.90;99.90
16289;DHT22;26089;43.538;5.250;2023-02-12T03:59:56;0.90;99.90
16289;DHT22;26089;43.538;5.250;2023-02-12T04:02:26;0.90;99.90
16289;DHT22;26089;43.538;5.250;2023-02-12T04:04:53;1.90;99.90
16289;DHT22;26089;43.538;5.250;2023-02-12T04:07:20;0.90;99.90
16289;DHT22;26089;43.538;5.250;2023-02-12T04:09:48;0.90;99.90
16289;DHT22;26089;43.538;5.250;2023-02-12T04:12:26;1.00;99.90
16289;DHT22;26089;43.538;5.250;2023-02-12T04:15:10;1.00;99.90
16289;DHT22;26089;43.538;5.250;2023-02-12T04:17:49;0.70;99.90
16289;DHT22;26089;43.538;5.250;2023-02-12T04:20:26;1.00;99.90
16289;DHT22;26089;43.538;5.250;2023-02-12T04:23:03;0.90;99.90
16289;DHT22;26089;43.538;5.250;2023-02-12T04:25:42;1.00;99.90
16289;DHT22;26089;43.538;5.250;2023-02-12T04:28:18;1.00;99.90
16289;DHT22;26089;43.538;5.250;2023-02-12T04:30:53;1.00;99.90
16289;DHT22;26089;43.538;5.250;2023-02-12T04:33:25;0.90;99.90
16289;DHT22;26089;43.538;5.250;2023-02-12T04:35:58;0.80;99.90
16289;DHT22;26089;43.538;5.250;2023-02-12T04:38:31;0.80;99.90
16289;DHT22;26089;43.538;5.250;2023-02-12T04:41:03;0.70;99.90
16289;DHT22;26089;43.538;5.250;2023-02-12T04:43:33;1.40;99.90
16289;DHT22;26089;43.538;5.250;2023-02-12T04:46:00;0.60;99.90
16289;DHT22;26089;43.538;5.250;2023-02-12T04:48:28;1.10;99.90
16289;DHT22;26089;43.538;5.250;2023-02-12T04:50:56;0.80;99.90
16289;DHT22;26089;43.538;5.250;2023-02-12T04:53:23;1.50;99.90
16289;DHT22;26089;43.538;5.250;2023-02-12T04:55:50;0.90;99.90
16289;DHT22;26089;43.538;5.250;2023-02-12T04:58:17;-0.10;99.90
16289;DHT22;26089;43.538;5.250;2023-02-12T05:00:44;0.70;99.90
16289;DHT22;26089;43.538;5.250;2023-02-12T05:03:11;0.70;99.90
16289;DHT22;26089;43.538;5.250;2023-02-12T05:05:39;0.40;99.90
16289;DHT22;26089;43.538;5.250;2023-02-12T05:08:06;0.70;99.90
16289;DHT22;26089;43.538;5.250;2023-02-12T05:10:33;0.40;99.90
16289;DHT22;26089;43.538;5.250;2023-02-12T05:13:00;-0.50;99.90
16289;DHT22;26089;43.538;5.250;2023-02-12T05:15:27;0.50;99.90
16289;DHT22;26089;43.538;5.250;2023-02-12T05:17:54;0.40;99.90
16289;DHT22;26089;43.538;5.250;2023-02-12T05:20:21;0.60;99.90
16289;DHT22;26089;43.538;5.250;2023-02-12T05:22:52;0.60;99.90
16289;DHT22;26089;43.538;5.250;2023-02-12T05:25:19;0.70;99.90
16289;DHT22;26089;43.538;5.250;2023-02-12T05:27:46;0.60;99.90
16289;DHT22;26089;43.538;5.250;2023-02-12T05:30:13;0.30;99.90
16289;DHT22;26089;43.538;5.250;2023-02-12T05:32:40;0.50;99.90
16289;DHT22;26089;43.538;5.250;2023-02-12T05:35:07;1.00;99.90
16289;DHT22;26089;43.538;5.250;2023-02-12T05:37:35;0.50;99.90
16289;DHT22;26089;43.538;5.250;2023-02-12T05:40:04;0.50;99.90
16289;DHT22;26089;43.538;5.250;2023-02-12T05:42:33;0.50;99.90
16289;DHT22;26089;43.538;5.250;2023-02-12T05:45:00;0.30;99.90
16289;DHT22;26089;43.538;5.250;2023-02-12T05:47:27;0.60;99.90
16289;DHT22;26089;43.538;5.250;2023-02-12T05:49:54;0.40;99.90
16289;DHT22;26089;43.538;5.250;2023-02-12T05:52:21;0.40;99.90
16289;DHT22;26089;43.538;5.250;2023-02-12T05:54:48;0.40;99.90
16289;DHT22;26089;43.538;5.250;2023-02-12T05:57:17;0.40;99.90
16289;DHT22;26089;43.538;5.250;2023-02-12T05:59:44;0.30;99.90
16289;DHT22;26089;43.538;5.250;2023-02-12T06:02:11;0.60;99.90
16289;DHT22;26089;43.538;5.250;2023-02-12T06:04:38;0.30;99.90
16289;DHT22;26089;43.538;5.250;2023-02-12T06:07:05;0.30;99.90
16289;DHT22;26089;43.538;5.250;2023-02-12T06:09:33;1.50;99.90
16289;DHT22;26089;43.538;5.250;2023-02-12T06:12:00;0.20;99.90
16289;DHT22;26089;43.538;5.250;2023-02-12T06:14:29;0.90;99.90
16289;DHT22;26089;43.538;5.250;2023-02-12T06:16:56;0.20;99.90
16289;DHT22;26089;43.538;5.250;2023-02-12T06:19:23;0.40;99.90
16289;DHT22;26089;43.538;5.250;2023-02-12T06:21:50;0.40;99.90
16289;DHT22;26089;43.538;5.250;2023-02-12T06:24:17;0.20;99.90
16289;DHT22;26089;43.538;5.250;2023-02-12T06:26:44;0.80;99.90
16289;DHT22;26089;43.538;5.250;2023-02-12T06:29:11;0.50;99.90
16289;DHT22;26089;43.538;5.250;2023-02-12T06:31:40;0.50;99.90
16289;DHT22;26089;43.538;5.250;2023-02-12T06:34:10;0.40;99.90
16289;DHT22;26089;43.538;5.250;2023-02-12T06:36:38;0.30;99.90
16289;DHT22;26089;43.538;5.250;2023-02-12T06:39:06;0.40;99.90
16289;DHT22;26089;43.538;5.250;2023-02-12T06:41:33;0.20;99.90
16289;DHT22;26089;43.538;5.250;2023-02-12T06:44:00;0.60;99.90
16289;DHT22;26089;43.538;5.250;2023-02-12T06:46:27;0.30;99.90
16289;DHT22;26089;43.538;5.250;2023-02-12T06:48:57;-0.40;99.90
16289;DHT22;26089;43.538;5.250;2023-02-12T06:51:25;0.40;99.90
16289;DHT22;26089;43.538;5.250;2023-02-12T06:53:54;0.40;99.90
16289;DHT22;26089;43.538;5.250;2023-02-12T06:56:22;0.20;99.90
16289;DHT22;26089;43.538;5.250;2023-02-12T06:58:52;0.30;99.90
16289;DHT22;26089;43.538;5.250;2023-02-12T07:01:23;0.30;99.90
16289;DHT22;26089;43.538;5.250;2023-02-12T07:03:52;0.20;99.90
16289;DHT22;26089;43.538;5.250;2023-02-12T07:06:21;0.40;99.90
16289;DHT22;26089;43.538;5.250;2023-02-12T07:08:49;0.40;99.90
16289;DHT22;26089;43.538;5.250;2023-02-12T07:11:16;0.50;99.90
16289;DHT22;26089;43.538;5.250;2023-02-12T07:13:44;0.40;99.90
16289;DHT22;26089;43.538;5.250;2023-02-12T07:16:13;0.30;99.90
16289;DHT22;26089;43.538;5.250;2023-02-12T07:18:41;0.60;99.90
16289;DHT22;26089;43.538;5.250;2023-02-12T07:21:09;0.60;99.90
16289;DHT22;26089;43.538;5.250;2023-02-12T07:23:38;0.60;99.90
16289;DHT22;26089;43.538;5.250;2023-02-12T07:26:07;0.70;99.90
16289;DHT22;26089;43.538;5.250;2023-02-12T07:28:35;0.90;99.90
16289;DHT22;26089;43.538;5.250;2023-02-12T07:31:05;0.80;99.90
16289;DHT22;26089;43.538;5.250;2023-02-12T07:33:33;0.90;99.90
16289;DHT22;26089;43.538;5.250;2023-02-12T07:36:00;1.10;99.90
16289;DHT22;26089;43.538;5.250;2023-02-12T07:38:28;2.10;99.90
16289;DHT22;26089;43.538;5.250;2023-02-12T07:41:05;1.80;99.90
16289;DHT22;26089;43.538;5.250;2023-02-12T07:43:32;1.00;99.90
16289;DHT22;26089;43.538;5.250;2023-02-12T07:46:06;2.00;99.90
16289;DHT22;26089;43.538;5.250;2023-02-12T07:48:33;1.30;99.90
16289;DHT22;26089;43.538;5.250;2023-02-12T07:51:02;1.10;99.90
16289;DHT22;26089;43.538;5.250;2023-02-12T07:53:30;1.50;99.90
16289;DHT22;26089;43.538;5.250;2023-02-12T07:56:08;1.80;99.90
16289;DHT22;26089;43.538;5.250;2023-02-12T07:58:36;1.90;99.90
16289;DHT22;26089;43.538;5.250;2023-02-12T08:01:12;2.10;99.90
16289;DHT22;26089;43.538;5.250;2023-02-12T08:03:39;2.20;99.90
16289;DHT22;26089;43.538;5.250;2023-02-12T08:06:08;3.00;99.90
16289;DHT22;26089;43.538;5.250;2023-02-12T08:08:35;2.50;99.90
16289;DHT22;26089;43.538;5.250;2023-02-12T08:11:05;2.60;99.90
16289;DHT22;26089;43.538;5.250;2023-02-12T08:13:33;2.80;99.90
16289;DHT22;26089;43.538;5.250;2023-02-12T08:16:00;3.10;99.90
16289;DHT22;26089;43.538;5.250;2023-02-12T08:18:27;3.50;99.90
16289;DHT22;26089;43.538;5.250;2023-02-12T08:21:00;4.50;99.90
16289;DHT22;26089;43.538;5.250;2023-02-12T08:23:27;5.10;99.90
16289;DHT22;26089;43.538;5.250;2023-02-12T08:25:54;5.60;99.90
16289;DHT22;26089;43.538;5.250;2023-02-12T08:28:22;6.00;99.90
16289;DHT22;26089;43.538;5.250;2023-02-12T08:30:49;6.60;99.90
16289;DHT22;26089;43.538;5.250;2023-02-12T08:33:16;7.80;99.90
16289;DHT22;26089;43.538;5.250;2023-02-12T08:35:43;8.70;99.90
16289;DHT22;26089;43.538;5.250;2023-02-12T08:38:10;9.70;99.90
16289;DHT22;26089;43.538;5.250;2023-02-12T08:40:37;10.30;99.90
16289;DHT22;26089;43.538;5.250;2023-02-12T08:43:04;10.50;99.90
16289;DHT22;26089;43.538;5.250;2023-02-12T08:45:33;11.00;99.90
16289;DHT22;26089;43.538;5.250;2023-02-12T08:48:00;11.40;99.90
16289;DHT22;26089;43.538;5.250;2023-02-12T08:50:27;11.90;99.90
16289;DHT22;26089;43.538;5.250;2023-02-12T08:52:54;12.20;99.90
16289;DHT22;26089;43.538;5.250;2023-02-12T08:55:21;12.40;99.90
16289;DHT22;26089;43.538;5.250;2023-02-12T08:57:48;12.50;99.90
16289;DHT22;26089;43.538;5.250;2023-02-12T09:00:15;12.20;99.90
16289;DHT22;26089;43.538;5.250;2023-02-12T09:02:43;11.50;99.90
16289;DHT22;26089;43.538;5.250;2023-02-12T09:05:10;10.50;99.90
16289;DHT22;26089;43.538;5.250;2023-02-12T09:07:37;9.70;99.90
16289;DHT22;26089;43.538;5.250;2023-02-12T09:10:06;9.10;99.90
16289;DHT22;26089;43.538;5.250;2023-02-12T09:12:33;8.70;99.90
16289;DHT22;26089;43.538;5.250;2023-02-12T09:15:00;8.30;99.90
16289;DHT22;26089;43.538;5.250;2023-02-12T09:17:27;8.40;99.90
16289;DHT22;26089;43.538;5.250;2023-02-12T09:19:56;7.90;99.90
16289;DHT22;26089;43.538;5.250;2023-02-12T09:22:26;7.90;99.90
16289;DHT22;26089;43.538;5.250;2023-02-12T09:24:52;8.00;99.90
16289;DHT22;26089;43.538;5.250;2023-02-12T09:27:19;8.10;99.90
16289;DHT22;26089;43.538;5.250;2023-02-12T09:29:46;8.00;99.90
16289;DHT22;26089;43.538;5.250;2023-02-12T09:32:13;7.30;99.90
16289;DHT22;26089;43.538;5.250;2023-02-12T09:34:40;8.00;99.90
16289;DHT22;26089;43.538;5.250;2023-02-12T09:37:09;8.10;99.90
16289;DHT22;26089;43.538;5.250;2023-02-12T09:39:36;8.20;99.90
16289;DHT22;26089;43.538;5.250;2023-02-12T09:42:14;8.20;99.90
16289;DHT22;26089;43.538;5.250;2023-02-12T09:44:48;8.90;99.90
16289;DHT22;26089;43.538;5.250;2023-02-12T09:47:22;8.40;99.90
16289;DHT22;26089;43.538;5.250;2023-02-12T09:50:05;8.50;99.90
16289;DHT22;26089;43.538;5.250;2023-02-12T09:52:37;8.60;99.90
16289;DHT22;26089;43.538;5.250;2023-02-12T09:55:05;8.70;99.90
16289;DHT22;26089;43.538;5.250;2023-02-12T09:57:37;8.80;99.90
16289;DHT22;26089;43.538;5.250;2023-02-12T10:00:06;8.80;99.90
16289;DHT22;26089;43.538;5.250;2023-02-12T10:02:35;8.80;99.90
16289;DHT22;26089;43.538;5.250;2023-02-12T10:05:03;8.90;99.90
16289;DHT22;26089;43.538;5.250;2023-02-12T10:07:57;8.80;99.90
16289;DHT22;26089;43.538;5.250;2023-02-12T10:10:41;8.80;99.90
16289;DHT22;26089;43.538;5.250;2023-02-12T10:13:17;9.10;99.90
16289;DHT22;26089;43.538;5.250;2023-02-12T10:15:53;9.30;99.90
16289;DHT22;26089;43.538;5.250;2023-02-12T10:18:47;9.60;99.90
16289;DHT22;26089;43.538;5.250;2023-02-12T10:21:32;9.70;99.90
16289;DHT22;26089;43.538;5.250;2023-02-12T10:24:20;9.70;99.90
16289;DHT22;26089;43.538;5.250;2023-02-12T10:26:54;9.90;99.90
16289;DHT22;26089;43.538;5.250;2023-02-12T10:29:25;10.10;99.90
16289;DHT22;26089;43.538;5.250;2023-02-12T10:31:56;10.20;99.90
16289;DHT22;26089;43.538;5.250;2023-02-12T10:34:29;10.20;99.90
16289;DHT22;26089;43.538;5.250;2023-02-12T10:37:01;10.20;99.90
16289;DHT22;26089;43.538;5.250;2023-02-12T10:39:34;10.10;99.90
16289;DHT22;26089;43.538;5.250;2023-02-12T10:42:05;10.20;99.90
16289;DHT22;26089;43.538;5.250;2023-02-12T10:44:35;10.40;99.90
16289;DHT22;26089;43.538;5.250;2023-02-12T10:47:02;10.40;99.90
16289;DHT22;26089;43.538;5.250;2023-02-12T10:49:30;11.00;99.90
16289;DHT22;26089;43.538;5.250;2023-02-12T10:52:03;10.60;99.90
16289;DHT22;26089;43.538;5.250;2023-02-12T10:54:37;10.80;99.90
16289;DHT22;26089;43.538;5.250;2023-02-12T10:57:09;10.90;99.90
16289;DHT22;26089;43.538;5.250;2023-02-12T10:59:37;11.10;99.90
16289;DHT22;26089;43.538;5.250;2023-02-12T11:02:18;11.30;99.90
16289;DHT22;26089;43.538;5.250;2023-02-12T11:04:45;11.10;99.90
16289;DHT22;26089;43.538;5.250;2023-02-12T11:07:12;11.20;99.90
16289;DHT22;26089;43.538;5.250;2023-02-12T11:09:43;11.40;99.90
16289;DHT22;26089;43.538;5.250;2023-02-12T11:12:20;11.80;99.90
16289;DHT22;26089;43.538;5.250;2023-02-12T11:14:50;12.50;99.90
16289;DHT22;26089;43.538;5.250;2023-02-12T11:17:24;12.60;99.90
16289;DHT22;26089;43.538;5.250;2023-02-12T11:22:56;12.60;99.90
16289;DHT22;26089;43.538;5.250;2023-02-12T11:25:26;12.70;99.90
16289;DHT22;26089;43.538;5.250;2023-02-12T11:28:13;12.60;99.90
16289;DHT22;26089;43.538;5.250;2023-02-12T11:30:52;12.90;99.90
16289;DHT22;26089;43.538;5.250;2023-02-12T11:33:24;13.30;99.90
16289;DHT22;26089;43.538;5.250;2023-02-12T11:35:52;13.80;99.90
16289;DHT22;26089;43.538;5.250;2023-02-12T11:38:24;14.50;99.90
16289;DHT22;26089;43.538;5.250;2023-02-12T11:40:57;15.00;99.90
16289;DHT22;26089;43.538;5.250;2023-02-12T11:43:26;15.40;99.90
16289;DHT22;26089;43.538;5.250;2023-02-12T11:45:56;15.50;99.90
16289;DHT22;26089;43.538;5.250;2023-02-12T11:48:28;15.80;99.90
16289;DHT22;26089;43.538;5.250;2023-02-12T11:50:58;16.10;99.90
16289;DHT22;26089;43.538;5.250;2023-02-12T11:53:29;16.20;99.90
16289;DHT22;26089;43.538;5.250;2023-02-12T11:55:59;16.30;99.90
16289;DHT22;26089;43.538;5.250;2023-02-12T11:58:29;16.50;99.90
16289;DHT22;26089;43.538;5.250;2023-02-12T12:01:02;16.70;99.90
16289;DHT22;26089;43.538;5.250;2023-02-12T12:03:35;16.70;99.90
16289;DHT22;26089;43.538;5.250;2023-02-12T12:06:07;16.60;99.90
16289;DHT22;26089;43.538;5.250;2023-02-12T12:08:42;16.80;99.90
16289;DHT22;26089;43.538;5.250;2023-02-12T12:11:15;16.80;99.90
16289;DHT22;26089;43.538;5.250;2023-02-12T12:13:48;17.00;99.90
16289;DHT22;26089;43.538;5.250;2023-02-12T12:16:21;17.40;99.90
16289;DHT22;26089;43.538;5.250;2023-02-12T12:19:14;17.50;99.90
16289;DHT22;26089;43.538;5.250;2023-02-12T12:22:21;17.50;99.90
16289;DHT22;26089;43.538;5.250;2023-02-12T12:24:52;17.50;99.90
16289;DHT22;26089;43.538;5.250;2023-02-12T12:27:32;17.60;99.90
16289;DHT22;26089;43.538;5.250;2023-02-12T12:30:22;17.60;99.90
16289;DHT22;26089;43.538;5.250;2023-02-12T12:32:52;17.60;99.90
16289;DHT22;26089;43.538;5.250;2023-02-12T12:35:25;17.50;99.90
16289;DHT22;26089;43.538;5.250;2023-02-12T12:37:59;17.80;99.90
16289;DHT22;26089;43.538;5.250;2023-02-12T12:40:46;17.80;99.90
16289;DHT22;26089;43.538;5.250;2023-02-12T12:43:23;17.80;99.90
16289;DHT22;26089;43.538;5.250;2023-02-12T12:46:19;18.10;99.90
16289;DHT22;26089;43.538;5.250;2023-02-12T12:49:05;18.10;99.90
16289;DHT22;26089;43.538;5.250;2023-02-12T12:51:53;17.60;99.90
16289;DHT22;26089;43.538;5.250;2023-02-12T12:54:34;17.90;99.90
16289;DHT22;26089;43.538;5.250;2023-02-12T12:57:09;18.30;99.90
16289;DHT22;26089;43.538;5.250;2023-02-12T13:05:56;18.30;99.90
16289;DHT22;26089;43.538;5.250;2023-02-12T13:08:43;18.30;99.90
16289;DHT22;26089;43.538;5.250;2023-02-12T13:11:26;18.00;99.90
16289;DHT22;26089;43.538;5.250;2023-02-12T13:14:03;18.10;99.90
16289;DHT22;26089;43.538;5.250;2023-02-12T13:16:35;18.20;99.90
16289;DHT22;26089;43.538;5.250;2023-02-12T13:19:06;17.90;99.90
16289;DHT22;26089;43.538;5.250;2023-02-12T13:21:46;18.00;99.90
16289;DHT22;26089;43.538;5.250;2023-02-12T13:24:22;17.90;99.90
16289;DHT22;26089;43.538;5.250;2023-02-12T13:26:54;18.30;99.90
16289;DHT22;26089;43.538;5.250;2023-02-12T13:29:25;18.40;99.90
16289;DHT22;26089;43.538;5.250;2023-02-12T13:31:56;18.40;99.90
16289;DHT22;26089;43.538;5.250;2023-02-12T13:34:26;18.40;99.90
16289;DHT22;26089;43.538;5.250;2023-02-12T13:36:58;18.60;99.90
16289;DHT22;26089;43.538;5.250;2023-02-12T13:39:29;18.60;99.90
16289;DHT22;26089;43.538;5.250;2023-02-12T13:42:16;18.60;99.90
16289;DHT22;26089;43.538;5.250;2023-02-12T13:44:52;18.40;99.90
16289;DHT22;26089;43.538;5.250;2023-02-12T13:47:30;18.30;99.90
16289;DHT22;26089;43.538;5.250;2023-02-12T13:50:05;18.40;99.90
16289;DHT22;26089;43.538;5.250;2023-02-12T13:52:42;18.60;99.90
16289;DHT22;26089;43.538;5.250;2023-02-12T13:55:22;18.60;99.90
16289;DHT22;26089;43.538;5.250;2023-02-12T13:58:45;18.30;99.90
16289;DHT22;26089;43.538;5.250;2023-02-12T14:01:34;17.90;99.90
16289;DHT22;26089;43.538;5.250;2023-02-12T14:06:58;17.30;99.90
16289;DHT22;26089;43.538;5.250;2023-02-12T14:09:33;17.60;99.90
16289;DHT22;26089;43.538;5.250;2023-02-12T14:12:03;17.80;99.90
16289;DHT22;26089;43.538;5.250;2023-02-12T14:14:34;18.00;99.90
16289;DHT22;26089;43.538;5.250;2023-02-12T14:17:51;17.70;99.90
16289;DHT22;26089;43.538;5.250;2023-02-12T14:20:24;17.70;99.90
16289;DHT22;26089;43.538;5.250;2023-02-12T14:23:25;17.60;99.90
16289;DHT22;26089;43.538;5.250;2023-02-12T14:26:05;17.60;99.10
16289;DHT22;26089;43.538;5.250;2023-02-12T14:28:46;17.60;99.90
16289;DHT22;26089;43.538;5.250;2023-02-12T14:31:32;17.30;99.40
16289;DHT22;26089;43.538;5.250;2023-02-12T14:37:16;17.10;99.90
16289;DHT22;26089;43.538;5.250;2023-02-12T14:39:43;16.80;99.90
16289;DHT22;26089;43.538;5.250;2023-02-12T14:42:42;16.60;99.90
16289;DHT22;26089;43.538;5.250;2023-02-12T14:45:26;16.00;99.90
16289;DHT22;26089;43.538;5.250;2023-02-12T14:47:53;16.00;99.90
16289;DHT22;26089;43.538;5.250;2023-02-12T14:50:28;15.80;99.90
16289;DHT22;26089;43.538;5.250;2023-02-12T14:53:03;15.80;99.90
16289;DHT22;26089;43.538;5.250;2023-02-12T14:55:33;15.50;99.90
16289;DHT22;26089;43.538;5.250;2023-02-12T14:58:04;15.30;99.90
16289;DHT22;26089;43.538;5.250;2023-02-12T15:00:35;15.40;99.90
16289;DHT22;26089;43.538;5.250;2023-02-12T15:03:22;15.40;99.90
16289;DHT22;26089;43.538;5.250;2023-02-12T15:05:57;15.40;99.90
16289;DHT22;26089;43.538;5.250;2023-02-12T15:08:31;15.20;99.90
16289;DHT22;26089;43.538;5.250;2023-02-12T15:11:08;15.00;99.90
16289;DHT22;26089;43.538;5.250;2023-02-12T15:13:48;15.00;99.90
16289;DHT22;26089;43.538;5.250;2023-02-12T15:16:26;14.90;99.90
16289;DHT22;26089;43.538;5.250;2023-02-12T15:19:01;14.90;99.90
16289;DHT22;26089;43.538;5.250;2023-02-12T15:21:31;14.80;99.90
16289;DHT22;26089;43.538;5.250;2023-02-12T15:24:04;14.70;99.90
16289;DHT22;26089;43.538;5.250;2023-02-12T15:26:34;14.70;99.90
16289;DHT22;26089;43.538;5.250;2023-02-12T15:29:03;14.50;99.90
16289;DHT22;26089;43.538;5.250;2023-02-12T15:31:31;14.40;99.90
16289;DHT22;26089;43.538;5.250;2023-02-12T15:34:01;14.40;99.90
16289;DHT22;26089;43.538;5.250;2023-02-12T15:36:31;14.40;99.90
16289;DHT22;26089;43.538;5.250;2023-02-12T15:39:00;14.20;99.90
16289;DHT22;26089;43.538;5.250;2023-02-12T15:41:38;14.20;99.90
16289;DHT22;26089;43.538;5.250;2023-02-12T15:44:35;14.10;99.90
16289;DHT22;26089;43.538;5.250;2023-02-12T15:47:10;14.10;99.90
16289;DHT22;26089;43.538;5.250;2023-02-12T15:49:39;13.90;99.90
16289;DHT22;26089;43.538;5.250;2023-02-12T15:52:08;13.80;99.90
16289;DHT22;26089;43.538;5.250;2023-02-12T15:54:37;13.70;99.90
16289;DHT22;26089;43.538;5.250;2023-02-12T15:57:09;13.70;99.90
16289;DHT22;26089;43.538;5.250;2023-02-12T15:59:39;13.50;99.90
16289;DHT22;26089;43.538;5.250;2023-02-12T16:02:18;13.40;99.90
16289;DHT22;26089;43.538;5.250;2023-02-12T16:04:46;13.30;99.90
16289;DHT22;26089;43.538;5.250;2023-02-12T16:07:14;13.20;99.90
16289;DHT22;26089;43.538;5.250;2023-02-12T16:09:41;13.10;99.90
16289;DHT22;26089;43.538;5.250;2023-02-12T16:12:12;12.90;99.90
16289;DHT22;26089;43.538;5.250;2023-02-12T16:14:43;12.90;99.90
16289;DHT22;26089;43.538;5.250;2023-02-12T16:17:25;12.70;99.90
16289;DHT22;26089;43.538;5.250;2023-02-12T16:19:54;12.60;99.90
16289;DHT22;26089;43.538;5.250;2023-02-12T16:22:25;12.60;99.90
16289;DHT22;26089;43.538;5.250;2023-02-12T16:24:54;12.40;99.90
16289;DHT22;26089;43.538;5.250;2023-02-12T16:27:24;12.20;99.90